Time;durP1;ratioP1;P1;durP2;ratioP2;P2;SDS_P1;SDS_P2;PMS_P1;PMS_P2;Temp;Humidity;BMP_temperature;BMP_pressure;BME280_temperature;BME280_humidity;BME280_pressure;Samples;Min_cycle;Max_cycle;Signal;HPM_P1;HPM_P2
2021/09/16 00:01:32;;;;;;;7.47;1.30;;;;;;;16.26;70.19;101638.81;5071318;28;20051;-47
2021/09/16 00:03:57;;;;;;;5.22;0.93;;;;;;;16.26;70.58;101644.06;5070004;28;20032;-48
2021/09/16 00:06:22;;;;;;;3.92;1.10;;;;;;;16.22;70.86;101649.31;5047994;28;20051;-49
2021/09/16 00:08:48;;;;;;;3.60;1.20;;;;;;;16.31;71.01;101645.84;5072661;28;20121;-53
2021/09/16 00:11:13;;;;;;;2.83;1.10;;;;;;;16.38;70.31;101639.72;5051165;28;20416;-48
2021/09/16 00:13:39;;;;;;;5.45;1.20;;;;;;;16.47;70.19;101650.25;5073249;28;20032;-47
2021/09/16 00:16:05;;;;;;;4.45;1.27;;;;;;;16.51;69.83;101649.38;5069723;28;20388;-47
2021/09/16 00:18:30;;;;;;;3.28;1.17;;;;;;;16.52;70.24;101651.16;5047396;28;21075;-48
2021/09/16 00:20:56;;;;;;;5.18;1.38;;;;;;;16.57;70.19;101645.88;5070932;28;20590;-49
2021/09/16 00:23:21;;;;;;;3.95;1.00;;;;;;;16.57;69.51;101644.13;5069339;28;20031;-48
2021/09/16 00:25:47;;;;;;;5.00;1.10;;;;;;;16.66;68.47;101647.66;5071753;28;20023;-50
2021/09/16 00:28:12;;;;;;;3.25;0.95;;;;;;;16.61;68.64;101642.41;5051910;28;20120;-51
2021/09/16 00:30:37;;;;;;;5.72;1.10;;;;;;;16.63;68.33;101645.91;5069696;28;20031;-47
2021/09/16 00:33:03;;;;;;;3.17;1.00;;;;;;;16.71;67.73;101652.06;5067739;28;20135;-47
2021/09/16 00:35:28;;;;;;;4.70;1.30;;;;;;;16.73;67.59;101649.44;5072802;28;20040;-49
2021/09/16 00:37:54;;;;;;;5.90;1.08;;;;;;;16.78;67.41;101647.66;5068381;28;20031;-50
2021/09/16 00:40:20;;;;;;;4.55;1.08;;;;;;;16.85;67.02;101649.44;5069372;28;20816;-48
2021/09/16 00:42:45;;;;;;;3.63;0.98;;;;;;;16.89;66.84;101652.09;5070013;28;20327;-49
2021/09/16 00:45:11;;;;;;;3.65;1.25;;;;;;;17.22;65.76;101655.56;5035725;28;20507;-47
2021/09/16 00:47:41;;;;;;;3.70;1.00;;;;;;;17.36;65.03;101653.78;5068156;28;20326;-48
2021/09/16 00:50:08;;;;;;;2.97;0.98;;;;;;;17.46;64.61;101655.50;5049237;28;20038;-49
2021/09/16 00:52:34;;;;;;;6.97;1.08;;;;;;;17.48;64.72;101658.13;5069998;28;20063;-48
2021/09/16 00:55:00;;;;;;;3.55;1.00;;;;;;;17.49;63.83;101650.25;5074820;28;20031;-48
2021/09/16 00:57:25;;;;;;;5.03;1.05;;;;;;;17.61;63.68;101647.59;5065060;28;20391;-49
2021/09/16 00:59:51;;;;;;;4.05;1.13;;;;;;;17.63;64.37;101647.56;5048763;28;20039;-48
2021/09/16 01:02:16;;;;;;;3.88;1.08;;;;;;;17.68;64.43;101645.81;5049916;28;20039;-50
2021/09/16 01:04:42;;;;;;;4.82;1.17;;;;;;;17.70;63.73;101644.03;5069312;28;20023;-49
2021/09/16 01:07:13;;;;;;;3.80;0.90;;;;;;;17.72;63.49;101647.56;5065116;28;20097;-49
2021/09/16 01:09:38;;;;;;;5.97;1.00;;;;;;;17.75;63.20;101645.78;5070966;28;20028;-49
2021/09/16 01:12:04;;;;;;;3.97;0.90;;;;;;;17.86;63.06;101652.78;5054216;28;20514;-52
2021/09/16 01:14:30;;;;;;;5.32;1.05;;;;;;;17.91;62.85;101651.00;5068945;28;20028;-50
2021/09/16 01:16:56;;;;;;;3.78;0.98;;;;;;;17.87;63.83;101657.19;5070957;28;20038;-47
2021/09/16 01:19:21;;;;;;;4.03;1.00;;;;;;;17.94;63.34;101661.53;5066229;28;20016;-48
2021/09/16 01:21:47;;;;;;;5.03;1.20;;;;;;;17.94;63.60;101664.16;5069464;28;20032;-50
2021/09/16 01:24:13;;;;;;;3.85;1.00;;;;;;;17.93;64.34;101660.63;5068718;28;20035;-46
2021/09/16 01:26:42;;;;;;;3.90;0.98;;;;;;;17.83;66.15;101664.22;5066445;28;20518;-48
2021/09/16 01:29:07;;;;;;;4.10;1.00;;;;;;;17.70;67.17;101662.50;5077887;28;20035;-49
2021/09/16 01:31:36;;;;;;;4.60;1.20;;;;;;;17.67;67.58;101668.69;5068133;28;20330;-47
2021/09/16 01:34:04;;;;;;;4.13;1.02;;;;;;;17.61;67.67;101670.44;5070654;28;20028;-47
2021/09/16 01:36:29;;;;;;;6.30;1.20;;;;;;;17.54;68.52;101661.66;5064257;28;20356;-48
2021/09/16 01:38:54;;;;;;;3.92;1.00;;;;;;;17.45;68.85;101664.28;5070551;28;20035;-50
2021/09/16 01:41:20;;;;;;;3.17;1.08;;;;;;;17.39;70.13;101669.56;5055743;28;20036;-50
2021/09/16 01:43:45;;;;;;;5.60;1.00;;;;;;;17.35;70.89;101654.66;5067904;28;20423;-49
2021/09/16 01:46:10;;;;;;;5.22;1.10;;;;;;;17.28;70.73;101663.44;5048687;28;20464;-47
2021/09/16 01:48:36;;;;;;;3.75;1.13;;;;;;;17.25;70.88;101666.97;5066992;28;20495;-46
2021/09/16 01:51:01;;;;;;;5.32;1.10;;;;;;;17.12;70.47;101659.97;5068833;28;20040;-47
2021/09/16 01:53:27;;;;;;;6.82;1.10;;;;;;;17.13;70.84;101671.38;5070481;28;20140;-47
2021/09/16 01:55:52;;;;;;;3.97;1.10;;;;;;;17.13;70.46;101651.19;5068743;28;20034;-49
2021/09/16 01:58:18;;;;;;;2.83;1.00;;;;;;;17.12;70.78;101662.59;5063302;28;20064;-50
2021/09/16 02:00:43;;;;;;;3.80;1.33;;;;;;;17.11;70.59;101663.47;5069240;28;20081;-49
2021/09/16 02:03:08;;;;;;;4.38;1.08;;;;;;;17.04;71.05;101667.88;5068772;28;20112;-52
2021/09/16 02:05:34;;;;;;;6.88;1.13;;;;;;;17.01;71.58;101673.16;5050268;28;20127;-50
2021/09/16 02:07:59;;;;;;;2.88;1.05;;;;;;;16.99;71.59;101666.13;5068578;28;20461;-48
2021/09/16 02:10:24;;;;;;;5.18;1.10;;;;;;;16.95;71.91;101669.66;5065011;28;20130;-51
2021/09/16 02:12:50;;;;;;;5.93;1.10;;;;;;;17.01;71.70;101669.63;5069925;28;20036;-48
2021/09/16 02:15:15;;;;;;;6.85;1.20;;;;;;;16.97;71.90;101671.38;5067539;28;20074;-51
2021/09/16 02:17:41;;;;;;;4.22;1.10;;;;;;;17.00;71.92;101668.75;5068724;28;20059;-48
2021/09/16 02:20:07;;;;;;;6.43;1.20;;;;;;;17.00;71.87;101668.75;5076160;28;20042;-51
2021/09/16 02:22:32;;;;;;;4.00;1.17;;;;;;;16.96;71.77;101672.25;5064449;28;20063;-50
2021/09/16 02:24:57;;;;;;;3.92;1.10;;;;;;;16.86;71.86;101664.34;5071662;28;20020;-47
2021/09/16 02:27:23;;;;;;;3.55;1.25;;;;;;;16.82;71.98;101663.50;5071187;28;20080;-48
2021/09/16 02:29:48;;;;;;;4.15;1.08;;;;;;;16.75;72.09;101674.00;5068677;28;22063;-49
2021/09/16 02:32:13;;;;;;;3.20;1.02;;;;;;;16.66;72.80;101676.63;5081463;28;20346;-50
2021/09/16 02:34:39;;;;;;;5.35;1.30;;;;;;;16.61;72.57;101672.25;5067567;28;20032;-50
2021/09/16 02:37:04;;;;;;;2.90;1.05;;;;;;;16.63;72.58;101677.50;5071587;28;20016;-48
2021/09/16 02:39:30;;;;;;;3.60;1.00;;;;;;;16.69;72.79;101680.16;5070839;28;20492;-47
2021/09/16 02:41:55;;;;;;;3.75;1.10;;;;;;;16.75;72.81;101671.38;5077580;28;20286;-48
2021/09/16 02:44:20;;;;;;;3.63;1.00;;;;;;;16.79;72.27;101670.50;5053536;28;20519;-50
2021/09/16 02:46:46;;;;;;;3.65;1.00;;;;;;;16.84;71.38;101674.88;5070858;28;20036;-49
2021/09/16 02:49:11;;;;;;;4.57;1.20;;;;;;;16.88;71.39;101678.41;5073273;28;20031;-48
2021/09/16 02:51:36;;;;;;;3.08;0.93;;;;;;;16.89;70.70;101672.28;5064685;28;20219;-52
2021/09/16 02:54:02;;;;;;;3.40;0.90;;;;;;;17.01;70.83;101678.44;5068311;28;20122;-51
2021/09/16 02:56:27;;;;;;;4.30;0.82;;;;;;;17.06;70.16;101669.63;5071131;28;20470;-54
2021/09/16 02:58:53;;;;;;;4.45;0.90;;;;;;;17.12;69.94;101670.50;5071702;28;20458;-46
2021/09/16 03:01:18;;;;;;;3.63;0.80;;;;;;;17.12;70.57;101675.78;5072905;28;20428;-47
2021/09/16 03:03:43;;;;;;;4.88;0.90;;;;;;;17.15;71.52;101681.03;5073301;28;20038;-52
2021/09/16 03:06:09;;;;;;;5.65;0.98;;;;;;;17.14;71.07;101679.25;5071543;28;20392;-47
2021/09/16 03:08:34;;;;;;;4.13;1.00;;;;;;;17.14;70.62;101673.16;5051568;28;20035;-56
2021/09/16 03:10:59;;;;;;;5.15;1.20;;;;;;;17.09;70.22;101693.31;5073148;28;20142;-47
2021/09/16 03:13:25;;;;;;;2.03;0.90;;;;;;;17.11;70.42;101691.56;5053431;28;20645;-46
2021/09/16 03:15:50;;;;;;;2.05;0.85;;;;;;;17.08;71.12;101684.53;5071340;28;20032;-51
2021/09/16 03:18:16;;;;;;;2.83;0.98;;;;;;;17.04;70.89;101688.06;5071527;28;20541;-49
2021/09/16 03:20:41;;;;;;;6.07;1.05;;;;;;;17.03;71.02;101692.44;5067361;28;20035;-48
2021/09/16 03:23:06;;;;;;;4.50;1.00;;;;;;;17.01;70.67;101693.34;5070129;28;20047;-48
2021/09/16 03:25:32;;;;;;;5.03;0.80;;;;;;;16.91;71.07;101694.19;5052994;28;20028;-50
2021/09/16 03:27:57;;;;;;;2.78;0.88;;;;;;;16.79;71.32;101695.06;5073383;28;20107;-52
2021/09/16 03:30:22;;;;;;;3.17;0.90;;;;;;;16.71;71.34;101694.19;5052129;28;20027;-48
2021/09/16 03:32:48;;;;;;;5.20;1.10;;;;;;;16.70;72.17;101702.97;5073785;28;20594;-50
2021/09/16 03:35:13;;;;;;;3.58;1.05;;;;;;;16.70;72.33;101699.47;5072035;28;20119;-49
2021/09/16 03:37:38;;;;;;;4.28;1.10;;;;;;;16.75;72.43;101708.25;5072589;28;20040;-47
2021/09/16 03:40:05;;;;;;;3.55;0.82;;;;;;;16.79;72.41;101704.72;5071971;28;20486;-52
2021/09/16 03:42:32;;;;;;;2.95;0.85;;;;;;;16.80;72.01;101702.09;5068749;28;20346;-49
2021/09/16 03:44:58;;;;;;;2.97;1.10;;;;;;;16.80;72.42;101698.59;5069718;28;20734;-47
2021/09/16 03:47:23;;;;;;;4.30;1.20;;;;;;;16.81;72.48;101697.72;5069998;28;20024;-53
2021/09/16 03:49:49;;;;;;;5.15;1.00;;;;;;;16.80;71.61;101703.84;5070688;28;20287;-50
2021/09/16 03:52:14;;;;;;;5.22;0.90;;;;;;;16.85;71.75;101707.38;5072597;28;20063;-49
2021/09/16 03:54:40;;;;;;;3.58;1.10;;;;;;;16.83;72.37;101703.88;5066412;28;20119;-50
2021/09/16 03:57:05;;;;;;;5.47;0.90;;;;;;;16.90;71.47;101701.22;5048554;28;20039;-48
2021/09/16 03:59:31;;;;;;;3.65;0.90;;;;;;;16.92;70.98;101703.88;5056575;28;20047;-48
2021/09/16 04:01:57;;;;;;;3.10;1.10;;;;;;;16.92;70.82;101702.13;5069860;28;20240;-47
2021/09/16 04:04:22;;;;;;;3.10;1.05;;;;;;;16.96;71.49;101705.63;5051543;28;20028;-50
2021/09/16 04:06:48;;;;;;;3.08;1.00;;;;;;;16.97;71.64;101699.47;5068817;28;20031;-48
2021/09/16 04:09:14;;;;;;;4.85;1.05;;;;;;;16.97;71.44;101707.38;5072682;28;20350;-51
2021/09/16 04:11:39;;;;;;;4.55;1.00;;;;;;;16.99;71.44;101711.78;5072645;28;21207;-48
2021/09/16 04:14:04;;;;;;;3.28;1.10;;;;;;;17.00;71.45;101712.66;5064477;28;20055;-49
2021/09/16 04:16:30;;;;;;;4.00;1.10;;;;;;;17.01;71.28;101712.66;5073191;28;20080;-49
2021/09/16 04:18:56;;;;;;;2.83;1.00;;;;;;;17.03;70.88;101710.91;5066521;28;20034;-49
2021/09/16 04:21:22;;;;;;;4.75;1.35;;;;;;;17.07;71.18;101713.53;5072492;28;20107;-49
2021/09/16 04:23:47;;;;;;;4.40;1.00;;;;;;;17.07;70.36;101713.53;5071898;28;20028;-50
2021/09/16 04:26:14;;;;;;;4.95;1.00;;;;;;;17.10;70.78;101718.78;5070178;28;20138;-47
2021/09/16 04:28:40;;;;;;;4.13;1.10;;;;;;;17.12;71.03;101711.78;5069358;28;20450;-50
2021/09/16 04:31:05;;;;;;;2.92;1.10;;;;;;;17.16;70.21;101718.78;5069511;28;20039;-50
2021/09/16 04:33:30;;;;;;;2.35;1.00;;;;;;;17.18;70.71;101717.06;5054856;28;20115;-51
2021/09/16 04:35:56;;;;;;;3.22;1.05;;;;;;;17.18;70.76;101712.66;5068953;28;20028;-48
2021/09/16 04:38:21;;;;;;;3.60;1.20;;;;;;;17.19;70.92;101713.53;5069995;28;20189;-48
2021/09/16 04:40:46;;;;;;;5.40;1.17;;;;;;;17.20;70.16;101712.66;5065134;28;20566;-48
2021/09/16 04:43:12;;;;;;;3.72;1.10;;;;;;;17.21;69.75;101719.66;5068348;28;20059;-48
2021/09/16 04:45:37;;;;;;;3.97;1.23;;;;;;;17.19;69.23;101714.44;5050805;28;20020;-50
2021/09/16 04:48:03;;;;;;;5.78;1.40;;;;;;;17.20;70.06;101708.25;5047556;28;20432;-51
2021/09/16 04:50:29;;;;;;;6.80;1.60;;;;;;;17.18;69.80;101719.69;5069830;28;20032;-47
2021/09/16 04:52:54;;;;;;;6.10;1.30;;;;;;;17.16;70.65;101717.03;5035854;28;20055;-48
2021/09/16 04:55:19;;;;;;;5.05;1.20;;;;;;;17.18;71.00;101717.06;5049330;28;20135;-48
2021/09/16 04:57:45;;;;;;;3.97;1.20;;;;;;;17.17;71.19;101724.06;5052684;28;20093;-49
2021/09/16 05:00:11;;;;;;;5.20;1.23;;;;;;;17.18;70.72;101717.06;5065157;28;20487;-50
2021/09/16 05:02:36;;;;;;;4.10;1.10;;;;;;;17.20;70.24;101716.16;5074143;28;20595;-48
2021/09/16 05:05:03;;;;;;;6.85;1.35;;;;;;;17.19;69.96;101719.69;5064791;28;20036;-50
2021/09/16 05:07:28;;;;;;;2.85;1.10;;;;;;;17.21;69.39;101725.81;5049971;28;20032;-49
2021/09/16 05:09:54;;;;;;;5.60;1.30;;;;;;;17.23;68.29;101724.06;5065713;28;21183;-50
2021/09/16 05:12:19;;;;;;;3.88;1.33;;;;;;;17.27;67.75;101724.94;5069847;28;20036;-49
2021/09/16 05:14:45;;;;;;;3.72;1.30;;;;;;;17.35;67.58;101723.19;5050370;28;20023;-49
2021/09/16 05:17:10;;;;;;;5.38;1.40;;;;;;;17.31;66.98;101724.06;5063199;28;20473;-49
2021/09/16 05:19:35;;;;;;;6.70;1.30;;;;;;;17.36;67.52;101722.31;5071989;28;20051;-48
2021/09/16 05:22:01;;;;;;;5.30;1.10;;;;;;;17.36;68.26;101720.56;5068622;28;20031;-50
2021/09/16 05:24:26;;;;;;;7.15;1.50;;;;;;;17.34;67.71;101722.31;5067893;28;20554;-51
2021/09/16 05:26:52;;;;;;;3.25;1.20;;;;;;;17.40;68.35;101724.06;5067223;28;20535;-50
2021/09/16 05:29:17;;;;;;;4.50;1.20;;;;;;;17.41;68.58;101721.41;5069237;28;20393;-51
2021/09/16 05:31:43;;;;;;;3.60;1.10;;;;;;;17.43;68.03;101730.22;5072199;28;20040;-50
2021/09/16 05:34:08;;;;;;;6.97;1.60;;;;;;;17.43;68.15;101729.34;5065698;28;20178;-49
2021/09/16 05:36:34;;;;;;;3.83;1.30;;;;;;;17.40;67.87;101740.75;5067233;28;20051;-52
2021/09/16 05:38:59;;;;;;;3.30;1.02;;;;;;;17.38;67.89;101733.75;5068563;28;20081;-49
2021/09/16 05:41:25;;;;;;;6.63;1.52;;;;;;;17.33;68.96;101741.63;5049588;28;20103;-50
2021/09/16 05:43:50;;;;;;;5.03;1.20;;;;;;;17.32;68.96;101746.94;5069030;28;20099;-53
2021/09/16 05:46:16;;;;;;;6.05;1.30;;;;;;;17.27;69.40;101759.19;5067513;28;20713;-48
2021/09/16 05:48:41;;;;;;;5.18;1.30;;;;;;;17.27;69.49;101754.81;5069906;28;20097;-48
2021/09/16 05:51:07;;;;;;;3.70;1.60;;;;;;;17.25;69.81;101756.59;5068868;28;20219;-52
2021/09/16 05:53:32;;;;;;;4.78;1.25;;;;;;;17.20;69.91;101754.84;5067708;28;20039;-48
2021/09/16 05:55:58;;;;;;;4.40;1.58;;;;;;;17.11;70.03;101760.09;5070995;28;20400;-48
2021/09/16 05:58:23;;;;;;;5.55;1.38;;;;;;;17.01;69.88;101757.47;5052501;28;20032;-49
2021/09/16 06:00:48;;;;;;;4.25;1.35;;;;;;;16.89;70.67;101759.19;5063482;28;20040;-47
2021/09/16 06:03:14;;;;;;;4.63;1.30;;;;;;;16.98;71.29;101759.19;5069083;28;20055;-47
2021/09/16 06:05:41;;;;;;;5.90;1.50;;;;;;;17.35;70.23;101760.97;5063352;28;20098;-49
2021/09/16 06:08:06;;;;;;;3.47;1.40;;;;;;;17.95;69.38;101767.06;5064402;28;20400;-49
2021/09/16 06:10:31;;;;;;;4.50;1.55;;;;;;;18.88;64.51;101758.72;5071418;28;20043;-50
2021/09/16 06:12:57;;;;;;;8.68;1.52;;;;;;;19.71;60.71;101770.38;5067983;28;20562;-52
2021/09/16 06:15:23;;;;;;;4.25;1.38;;;;;;;20.38;59.25;101772.31;5067048;28;20442;-52
2021/09/16 06:17:48;;;;;;;4.57;1.48;;;;;;;21.11;55.65;101768.59;5053661;28;20065;-50
2021/09/16 06:20:13;;;;;;;8.05;1.30;;;;;;;21.66;55.84;101773.88;5065091;28;20543;-49
2021/09/16 06:22:39;;;;;;;5.07;1.23;;;;;;;21.94;54.88;101768.97;5063420;28;20471;-50
2021/09/16 06:25:05;;;;;;;4.35;1.20;;;;;;;22.41;53.00;101771.56;5066638;28;20040;-50
2021/09/16 06:27:31;;;;;;;4.47;1.30;;;;;;;22.80;51.44;101771.63;5065335;28;20370;-51
2021/09/16 06:29:56;;;;;;;3.80;1.10;;;;;;;22.94;50.35;101767.72;5066407;28;20028;-50
2021/09/16 06:32:21;;;;;;;5.95;1.02;;;;;;;23.29;50.33;101774.00;5063849;28;20106;-48
2021/09/16 06:34:47;;;;;;;4.57;1.30;;;;;;;23.84;48.43;101776.13;5065235;28;20167;-50
2021/09/16 06:37:12;;;;;;;8.02;1.50;;;;;;;23.89;47.80;101774.19;5070889;28;20031;-50
2021/09/16 06:39:38;;;;;;;3.92;1.40;;;;;;;24.01;48.53;101771.19;5064089;28;20088;-48
2021/09/16 06:42:03;;;;;;;6.88;1.50;;;;;;;24.09;49.54;101774.50;5069956;28;20028;-52
2021/09/16 06:44:29;;;;;;;5.13;1.20;;;;;;;24.20;47.21;101772.47;5063553;28;20032;-48
2021/09/16 06:46:54;;;;;;;5.43;1.40;;;;;;;24.35;47.77;101773.78;5049538;28;20066;-50
2021/09/16 06:49:20;;;;;;;5.15;1.20;;;;;;;24.75;45.16;101783.25;5057345;28;20028;-48
2021/09/16 06:51:45;;;;;;;6.85;1.20;;;;;;;25.25;43.09;101787.88;5062922;28;21257;-53
2021/09/16 06:54:10;;;;;;;4.60;1.27;;;;;;;24.97;45.63;101787.91;5067257;28;20487;-53
2021/09/16 06:56:36;;;;;;;2.75;1.00;;;;;;;25.37;43.25;101790.13;5066144;28;20131;-55
2021/09/16 06:59:01;;;;;;;4.28;1.23;;;;;;;25.73;42.72;101787.19;5065538;28;20454;-50
2021/09/16 07:01:26;;;;;;;4.65;1.10;;;;;;;25.53;43.09;101779.81;5063183;28;20119;-48
2021/09/16 07:03:53;;;;;;;3.30;1.08;;;;;;;25.48;43.35;101783.56;5070993;28;20151;-51
2021/09/16 07:06:19;;;;;;;7.03;1.30;;;;;;;25.73;42.42;101779.16;5067949;28;20389;-49
2021/09/16 07:08:45;;;;;;;3.95;1.20;;;;;;;25.95;41.81;101787.28;5069771;28;20867;-48
2021/09/16 07:11:11;;;;;;;6.80;1.42;;;;;;;25.82;42.81;101785.03;5070939;28;20028;-47
2021/09/16 07:13:36;;;;;;;7.55;1.08;;;;;;;26.47;41.35;101783.59;5053992;28;20184;-47
2021/09/16 07:16:01;;;;;;;4.00;1.02;;;;;;;26.26;40.77;101787.94;5069864;28;20135;-48
2021/09/16 07:18:27;;;;;;;6.60;1.20;;;;;;;25.84;42.66;101788.53;5067503;28;20024;-49
2021/09/16 07:20:52;;;;;;;3.47;1.00;;;;;;;26.52;41.60;101786.97;5072770;28;20115;-51
2021/09/16 07:23:17;;;;;;;4.07;1.25;;;;;;;26.40;40.91;101787.44;5070335;28;20039;-53
2021/09/16 07:25:43;;;;;;;2.50;1.08;;;;;;;25.96;42.72;101787.22;5069839;28;20063;-53
2021/09/16 07:28:08;;;;;;;3.75;1.00;;;;;;;26.35;42.94;101792.94;5048473;28;20095;-50
2021/09/16 07:30:33;;;;;;;5.18;1.13;;;;;;;26.70;41.35;101790.72;5052773;28;20451;-49
2021/09/16 07:32:59;;;;;;;3.45;1.20;;;;;;;26.66;40.83;101793.50;5067097;28;21323;-50
2021/09/16 07:35:25;;;;;;;3.08;1.00;;;;;;;25.66;42.34;101799.00;5070028;28;20032;-50
2021/09/16 07:37:50;;;;;;;4.15;1.08;;;;;;;24.39;44.74;101794.13;5066154;28;20039;-50
2021/09/16 07:40:16;;;;;;;6.03;1.30;;;;;;;23.49;47.45;101798.31;5069164;28;20035;-48
2021/09/16 07:42:41;;;;;;;5.68;1.30;;;;;;;22.76;48.04;101804.47;5052903;28;20026;-49
2021/09/16 07:45:07;;;;;;;4.38;1.30;;;;;;;22.46;50.18;101806.88;5069182;28;20032;-49
2021/09/16 07:47:32;;;;;;;6.15;1.30;;;;;;;22.40;50.52;101801.69;5051961;28;20400;-53
2021/09/16 07:49:58;;;;;;;4.38;1.30;;;;;;;22.37;50.90;101807.06;5072409;28;20221;-50
2021/09/16 07:52:23;;;;;;;3.17;1.08;;;;;;;22.48;49.90;101805.06;5065994;28;20024;-50
2021/09/16 07:54:48;;;;;;;6.00;1.13;;;;;;;22.72;50.63;101816.97;5067947;28;20462;-52
2021/09/16 07:57:14;;;;;;;3.80;1.20;;;;;;;22.91;49.41;101807.69;5069163;28;20603;-50
2021/09/16 07:59:39;;;;;;;7.53;1.55;;;;;;;23.10;51.14;101809.94;5068169;28;20078;-48
2021/09/16 08:02:05;;;;;;;4.78;1.30;;;;;;;23.28;49.07;101812.16;5066194;28;20784;-47
2021/09/16 08:04:30;;;;;;;6.25;1.30;;;;;;;23.10;49.48;101817.91;5070475;28;20024;-50
2021/09/16 08:06:55;;;;;;;4.50;1.20;;;;;;;23.18;48.03;101813.25;5047972;28;20033;-49
2021/09/16 08:09:21;;;;;;;3.28;1.25;;;;;;;23.03;51.32;101815.38;5068325;28;20120;-49
2021/09/16 08:11:47;;;;;;;4.53;1.20;;;;;;;23.20;48.80;101816.75;5066639;28;20032;-48
2021/09/16 08:14:12;;;;;;;3.78;1.10;;;;;;;23.36;49.06;101823.47;5065109;28;20468;-51
2021/09/16 08:16:38;;;;;;;6.45;1.10;;;;;;;23.14;50.45;101825.78;5070305;28;20039;-48
2021/09/16 08:19:05;;;;;;;4.82;1.30;;;;;;;23.39;49.44;101828.72;5051494;28;20055;-50
2021/09/16 08:21:30;;;;;;;3.38;1.20;;;;;;;23.47;50.14;101829.44;5067930;28;20032;-50
2021/09/16 08:23:56;;;;;;;4.82;1.10;;;;;;;23.42;49.28;101831.31;5061878;28;20582;-51
2021/09/16 08:26:22;;;;;;;5.10;1.10;;;;;;;23.32;49.05;101832.44;5061726;28;20032;-49
2021/09/16 08:28:48;;;;;;;3.53;0.90;;;;;;;23.11;50.27;101833.84;5050122;28;20487;-50
2021/09/16 08:31:14;;;;;;;3.50;1.23;;;;;;;23.03;49.80;101830.47;5046267;28;20092;-49
2021/09/16 08:33:39;;;;;;;4.18;1.17;;;;;;;23.20;49.41;101830.94;5048798;28;20054;-51
2021/09/16 08:36:05;;;;;;;2.95;1.00;;;;;;;23.13;49.82;101833.78;5048136;28;20036;-51
2021/09/16 08:38:30;;;;;;;3.88;1.00;;;;;;;22.90;49.58;101839.63;5067436;28;20158;-50
2021/09/16 08:40:56;;;;;;;3.03;1.02;;;;;;;22.60;51.39;101846.44;5066078;28;20432;-50
2021/09/16 08:43:27;;;;;;;2.95;1.05;;;;;;;22.69;50.75;101842.75;5064132;28;20474;-51
2021/09/16 08:45:52;;;;;;;6.30;1.52;;;;;;;22.90;50.55;101839.63;5065189;28;20711;-54
2021/09/16 08:48:18;;;;;;;3.97;1.13;;;;;;;23.19;51.18;101847.81;5067857;28;20051;-51
2021/09/16 08:50:43;;;;;;;3.58;1.10;;;;;;;23.29;49.26;101845.81;5068203;28;20035;-53
2021/09/16 08:53:12;;;;;;;3.10;1.17;;;;;;;23.18;49.47;101854.03;5070823;28;20250;-55
2021/09/16 08:55:37;;;;;;;2.83;0.90;;;;;;;23.18;49.96;101862.03;5042192;28;20134;-53
2021/09/16 08:58:03;;;;;;;3.13;1.13;;;;;;;22.94;49.96;101860.78;5050675;28;20051;-51
2021/09/16 09:00:30;;;;;;;3.22;1.10;;;;;;;23.04;51.02;101858.81;5049518;28;20078;-50
2021/09/16 09:02:57;;;;;;;4.13;1.05;;;;;;;23.13;50.68;101855.06;5069363;28;20129;-51
2021/09/16 09:05:23;;;;;;;2.55;1.00;;;;;;;23.26;49.62;101853.88;5065916;28;20040;-50
2021/09/16 09:07:51;;;;;;;3.42;1.10;;;;;;;23.13;48.61;101852.41;5049581;28;20503;-51
2021/09/16 09:10:40;;;;;;;3.45;1.00;;;;;;;23.16;48.70;101861.19;5071455;28;20460;-52
2021/09/16 09:13:28;;;;;;;4.07;1.20;;;;;;;22.87;49.92;101853.84;5033589;28;20020;-50
2021/09/16 09:16:05;;;;;;;3.33;1.10;;;;;;;22.87;51.70;101856.50;5069439;28;20031;-51
2021/09/16 09:18:44;;;;;;;2.22;0.85;;;;;;;22.95;50.50;101857.22;5063397;28;20029;-51
2021/09/16 09:21:11;;;;;;;2.85;1.00;;;;;;;23.00;50.34;101858.00;5071272;28;20504;-51
2021/09/16 09:23:42;;;;;;;4.05;1.05;;;;;;;23.06;50.90;101855.19;5065445;28;20048;-50
2021/09/16 09:26:27;;;;;;;2.55;1.00;;;;;;;23.10;49.71;101860.47;5064205;28;20028;-49
2021/09/16 09:29:11;;;;;;;4.20;1.00;;;;;;;22.89;50.05;101846.72;5065857;28;20034;-51
2021/09/16 09:31:37;;;;;;;;;;;;;;;23.13;49.46;101845.28;5064833;28;20546;-52
2021/09/16 09:34:21;;;;;;;4.93;1.15;;;;;;;23.19;50.06;101844.28;5067127;28;20169;-48
2021/09/16 09:36:47;;;;;;;4.00;1.10;;;;;;;23.40;49.07;101854.41;5057621;28;20042;-49
2021/09/16 09:39:12;;;;;;;3.03;0.98;;;;;;;23.47;47.66;101860.50;5070264;28;20578;-49
2021/09/16 09:41:38;;;;;;;2.67;1.10;;;;;;;23.52;47.80;101862.16;5067359;28;20852;-50
2021/09/16 09:44:12;;;;;;;2.55;1.02;;;;;;;23.74;48.25;101862.47;5050126;28;20038;-53
2021/09/16 09:46:52;;;;;;;3.58;1.00;;;;;;;23.64;48.99;101866.28;5052141;28;20119;-50
2021/09/16 09:49:21;;;;;;;2.78;1.08;;;;;;;23.67;48.14;101861.75;5068363;28;20024;-53
2021/09/16 09:51:53;;;;;;;4.05;1.00;;;;;;;23.65;49.01;101868.91;5045507;28;20033;-47
2021/09/16 09:54:38;;;;;;;3.25;1.20;;;;;;;23.44;47.98;101862.28;5067199;28;20028;-49
2021/09/16 09:57:17;;;;;;;1.98;0.90;;;;;;;23.42;49.17;101865.91;5067987;28;20085;-49
2021/09/16 10:00:00;;;;;;;4.22;1.00;;;;;;;23.44;48.30;101861.41;5066164;28;20056;-49
2021/09/16 10:02:52;;;;;;;2.20;0.85;;;;;;;23.29;49.36;101870.66;5051036;28;20368;-53
2021/09/16 10:05:32;;;;;;;4.43;1.10;;;;;;;23.31;49.18;101876.78;5067128;28;20282;-53
2021/09/16 10:08:04;;;;;;;4.22;1.20;;;;;;;23.34;49.61;101874.06;5050229;28;20342;-51
2021/09/16 10:10:40;;;;;;;2.65;1.20;;;;;;;23.36;47.98;101866.91;5067137;28;20543;-47
2021/09/16 10:13:06;;;;;;;4.10;1.17;;;;;;;23.53;48.33;101871.00;5066803;28;20027;-49
2021/09/16 10:15:31;;;;;;;4.25;1.05;;;;;;;23.66;47.49;101868.00;5068108;28;20028;-50
2021/09/16 10:17:57;;;;;;;3.08;1.20;;;;;;;23.72;47.42;101862.53;5068929;28;20609;-48
2021/09/16 10:20:24;;;;;;;4.68;1.20;;;;;;;23.54;48.49;101865.66;5066528;28;20814;-49
2021/09/16 10:22:52;;;;;;;3.33;1.10;;;;;;;23.63;46.83;101864.53;5067728;28;20441;-48
2021/09/16 10:25:20;;;;;;;2.08;1.10;;;;;;;23.56;48.05;101862.94;5046477;28;20032;-50
2021/09/16 10:27:48;;;;;;;2.90;1.25;;;;;;;23.57;47.80;101860.25;5064674;28;20036;-49
2021/09/16 10:30:22;;;;;;;4.32;1.42;;;;;;;23.64;48.46;101866.28;5065533;28;20257;-49
2021/09/16 10:33:03;;;;;;;4.25;1.20;;;;;;;23.62;47.22;101862.78;5066945;28;20115;-49
2021/09/16 10:35:29;;;;;;;2.55;1.00;;;;;;;23.57;47.86;101862.91;5059081;28;20128;-52
2021/09/16 10:37:55;;;;;;;6.63;1.30;;;;;;;23.64;46.58;101867.16;5064519;28;20505;-51
2021/09/16 10:40:20;;;;;;;3.05;1.17;;;;;;;23.71;47.89;101874.09;5050644;28;20024;-51
2021/09/16 10:42:51;;;;;;;2.70;1.20;;;;;;;23.70;47.71;101877.66;5049835;28;20572;-50
2021/09/16 10:45:26;;;;;;;5.03;1.15;;;;;;;23.74;47.32;101873.13;5068137;28;20623;-50
2021/09/16 10:48:13;;;;;;;6.13;1.33;;;;;;;23.62;47.97;101874.31;5069094;28;20024;-53
2021/09/16 10:50:41;;;;;;;3.28;1.35;;;;;;;23.57;46.01;101868.22;5069695;28;20092;-49
2021/09/16 10:53:34;;;;;;;4.50;1.20;;;;;;;23.58;47.15;101877.97;5065666;28;20245;-48
2021/09/16 10:56:00;;;;;;;3.90;1.15;;;;;;;23.72;46.43;101881.16;5052897;28;20597;-49
2021/09/16 10:58:26;;;;;;;2.92;1.25;;;;;;;23.74;47.99;101878.44;5073824;28;20069;-53
2021/09/16 11:00:52;;;;;;;4.05;1.20;;;;;;;23.90;47.28;101873.63;5054277;28;20079;-50
2021/09/16 11:03:18;;;;;;;2.17;1.10;;;;;;;23.94;48.47;101875.28;5062281;28;20221;-51
2021/09/16 11:05:50;;;;;;;3.75;1.33;;;;;;;24.02;46.52;101874.19;5047503;28;20032;-49
2021/09/16 11:08:16;;;;;;;2.70;1.25;;;;;;;24.07;46.29;101877.59;5052831;28;20492;-51
2021/09/16 11:10:42;;;;;;;1.88;1.23;;;;;;;23.89;46.43;101874.53;5065644;28;20063;-52
2021/09/16 11:13:25;;;;;;;4.00;1.20;;;;;;;;;;5069717;28;21243;-47
2021/09/16 11:15:55;;;;;;;2.78;1.30;;;;;;;23.43;48.40;101868.50;5056440;28;20762;-50
2021/09/16 11:18:22;;;;;;;2.63;1.20;;;;;;;23.57;48.83;101872.66;5069907;28;20028;-51
2021/09/16 11:20:52;;;;;;;2.10;1.30;;;;;;;23.70;49.16;101872.34;5053774;28;20034;-52
2021/09/16 11:23:18;;;;;;;2.97;1.38;;;;;;;23.96;49.32;101871.69;5073452;28;20073;-52
2021/09/16 11:25:49;;;;;;;3.00;1.80;;;;;;;23.86;47.72;101875.47;5070423;28;20434;-49